Time;durP1;ratioP1;P1;durP2;ratioP2;P2;SDS_P1;SDS_P2;PMS_P1;PMS_P2;Temp;Humidity;BMP_temperature;BMP_pressure;BME280_temperature;BME280_humidity;BME280_pressure;Samples;Min_cycle;Max_cycle;Signal;HPM_P1;HPM_P2
2022/05/23 00:01:05;;;;;;;;;5.33;5.00;;;;;20.34;56.66;100239.63;5080731;27;45301;-69
2022/05/23 00:03:31;;;;;;;;;6.67;6.67;;;;;20.35;57.59;100248.75;5063684;28;45631;-69
2022/05/23 00:05:57;;;;;;;;;6.33;6.33;;;;;20.35;57.05;100276.34;5082619;27;46524;-68
2022/05/23 00:08:25;;;;;;;;;6.00;6.00;;;;;20.32;57.65;100268.47;5073701;27;45455;-69
2022/05/23 00:10:51;;;;;;;;;6.67;6.67;;;;;20.31;58.11;100258.53;5086027;27;45498;-68
2022/05/23 00:13:16;;;;;;;;;6.00;6.00;;;;;20.31;57.66;100258.53;5076664;27;45393;-69
2022/05/23 00:15:41;;;;;;;;;6.67;6.67;;;;;20.33;57.88;100251.72;5080791;27;45464;-69
2022/05/23 00:18:07;;;;;;;;;7.00;7.00;;;;;20.37;56.97;100272.31;5077851;27;45380;-69
2022/05/23 00:20:32;;;;;;;;;8.00;6.00;;;;;20.37;57.94;100277.81;5075838;27;45347;-69
2022/05/23 00:22:57;;;;;;;;;7.00;7.00;;;;;20.24;57.89;100268.75;5079565;27;45532;-69
2022/05/23 00:25:25;;;;;;;;;8.00;7.67;;;;;20.19;57.46;100261.13;5072087;27;45888;-69
2022/05/23 00:27:54;;;;;;;;;6.67;6.67;;;;;20.23;58.34;100247.75;5080638;27;45286;-69
2022/05/23 00:30:23;;;;;;;;;7.67;6.00;;;;;20.29;58.15;100244.94;5070123;27;45386;-70
2022/05/23 00:35:33;;;;;;;;;7.67;7.67;;;;;20.39;57.20;100227.91;5078605;27;45903;-68
2022/05/23 00:37:58;;;;;;;;;6.00;5.00;;;;;20.39;57.85;100222.38;5094908;27;45376;-69
2022/05/23 00:40:29;;;;;;;;;6.00;5.00;;;;;20.40;57.40;100224.09;5068056;27;45720;-68
2022/05/23 00:43:15;;;;;;;;;8.67;7.00;;;;;20.31;57.49;100200.59;5098653;27;45462;-68
2022/05/23 00:46:10;;;;;;;;;5.00;5.00;;;;;20.34;57.92;100209.28;5078294;27;46742;-70
2022/05/23 00:48:35;;;;;;;;;7.33;6.00;;;;;20.34;58.05;100206.53;5077078;27;45736;-68
2022/05/23 00:51:09;;;;;;;;;6.00;6.00;;;;;20.31;58.07;100200.59;5083695;27;45879;-68
2022/05/23 00:53:42;;;;;;;;;7.00;6.00;;;;;20.27;57.88;100189.16;5071085;28;45393;-70
2022/05/23 00:56:10;;;;;;;;;5.00;5.00;;;;;20.27;57.49;100194.66;5066843;28;47736;-68
2022/05/23 00:58:40;;;;;;;;;6.33;6.33;;;;;20.27;57.91;100182.78;5088248;27;46321;-68
2022/05/23 01:01:11;;;;;;;;;6.00;6.00;;;;;20.27;58.12;100183.63;5083542;27;45375;-68
2022/05/23 01:03:37;;;;;;;;;5.33;5.33;;;;;20.30;57.69;100193.38;5087940;27;45369;-69
2022/05/23 01:06:05;;;;;;;;;9.67;6.33;;;;;20.32;57.24;100186.53;5075693;27;45651;-69
2022/05/23 01:08:30;;;;;;;;;5.67;5.67;;;;;20.33;57.29;100179.13;5073180;27;45393;-68
2022/05/23 01:10:56;;;;;;;;;5.00;4.33;;;;;20.35;57.66;100182.53;5083503;27;45507;-69
2022/05/23 01:13:21;;;;;;;;;5.67;5.33;;;;;20.29;57.87;100164.09;5074695;27;45358;-68
2022/05/23 01:15:49;;;;;;;;;7.00;5.00;;;;;20.25;57.92;100165.59;5079690;27;46107;-68
2022/05/23 01:18:16;;;;;;;;;7.67;6.00;;;;;20.20;58.05;100156.09;5074702;27;45384;-68
2022/05/23 01:20:45;;;;;;;;;6.00;6.00;;;;;20.18;58.06;100140.84;5076576;27;45566;-69
2022/05/23 01:23:10;;;;;;;;;5.33;5.33;;;;;20.13;58.20;100138.78;5074865;27;45176;-68
2022/05/23 01:25:39;;;;;;;;;6.00;5.00;;;;;20.08;58.14;100135.00;5076156;27;47418;-68
2022/05/23 01:28:05;;;;;;;;;5.33;5.33;;;;;20.05;57.84;100130.78;5074852;27;45452;-68
2022/05/23 01:30:34;;;;;;;;;6.00;6.00;;;;;20.01;58.56;100113.00;5078512;27;45322;-68
2022/05/23 01:33:00;;;;;;;;;4.67;4.67;;;;;19.90;58.27;100105.44;5080360;27;45540;-69
2022/05/23 01:35:26;;;;;;;;;6.00;6.00;;;;;19.88;58.90;100103.97;5075204;27;45425;-69
2022/05/23 01:37:51;;;;;;;;;7.00;5.00;;;;;19.80;58.90;100094.06;5107695;27;45365;-68
2022/05/23 01:40:18;;;;;;;;;7.00;7.00;;;;;19.70;59.49;100091.84;5072059;27;45334;-68
2022/05/23 01:42:44;;;;;;;;;4.33;4.00;;;;;19.72;59.80;100088.84;5112559;27;45454;-68
2022/05/23 01:45:12;;;;;;;;;5.00;5.00;;;;;19.63;59.26;100069.00;5064671;28;45633;-69
2022/05/23 01:47:38;;;;;;;;;7.00;5.00;;;;;19.64;59.66;100081.72;5094046;27;45423;-68
2022/05/23 01:50:04;;;;;;;;;6.67;5.33;;;;;19.56;59.59;100059.09;5071340;27;45306;-70
2022/05/23 01:52:29;;;;;;;;;5.00;5.00;;;;;19.55;60.06;100051.88;5106725;27;45655;-69
2022/05/23 01:54:55;;;;;;;;;5.33;5.33;;;;;19.51;59.71;100045.09;5069950;27;46641;-68
2022/05/23 01:57:20;;;;;;;;;5.00;5.00;;;;;19.49;60.40;100039.84;5090532;27;45159;-68
2022/05/23 02:02:29;;;;;;;;;6.00;6.00;;;;;19.40;60.42;100027.38;5085849;27;45477;-68
2022/05/23 02:04:55;;;;;;;;;5.00;5.00;;;;;19.27;60.00;100016.47;5085724;27;46325;-68
2022/05/23 02:07:21;;;;;;;;;8.00;5.00;;;;;19.44;60.51;100045.97;5084064;27;45348;-68
2022/05/23 02:09:46;;;;;;;;;4.33;4.33;;;;;19.34;60.91;100029.13;5070383;27;46690;-68
2022/05/23 02:12:13;;;;;;;;;7.00;7.00;;;;;19.32;61.21;100036.75;5092858;27;45317;-69
2022/05/23 02:14:38;;;;;;;;;8.33;6.67;;;;;19.23;61.30;100027.06;5069926;27;45447;-69
2022/05/23 02:17:10;;;;;;;;;7.00;6.00;;;;;19.21;61.97;100026.47;5091533;27;45331;-69
2022/05/23 02:19:36;;;;;;;;;8.00;6.00;;;;;19.17;61.94;100030.69;5069054;27;45550;-68
2022/05/23 02:22:02;;;;;;;;;5.33;5.33;;;;;19.18;61.40;100040.66;5090441;27;45488;-68
2022/05/23 02:24:27;;;;;;;;;5.67;5.67;;;;;19.11;61.82;100034.34;5067230;27;45427;-69
2022/05/23 02:26:52;;;;;;;;;9.00;8.00;;;;;19.03;62.05;100048.38;5088956;27;45331;-69
2022/05/23 02:29:18;;;;;;;;;7.33;6.67;;;;;19.04;62.59;100050.06;5064365;27;45399;-69
2022/05/23 02:31:43;;;;;;;;;8.67;8.00;;;;;18.96;62.65;100051.16;5094419;27;45403;-68
2022/05/23 02:34:10;;;;;;;;;7.33;6.33;;;;;18.92;62.92;100057.34;5087082;27;46474;-69
2022/05/23 02:36:35;;;;;;;;;9.00;9.00;;;;;18.93;62.65;100057.09;5087276;27;45489;-69
2022/05/23 02:39:01;;;;;;;;;7.67;6.00;;;;;18.93;62.96;100059.00;5086351;27;45448;-68
2022/05/23 02:41:26;;;;;;;;;2.00;0.00;;;;;18.81;63.06;100050.59;5088904;27;45368;-69
2022/05/23 02:43:51;;;;;;;;;9.00;9.00;;;;;18.84;63.43;100054.84;5085470;27;46486;-69
2022/05/23 02:46:17;;;;;;;;;9.33;9.33;;;;;18.83;63.18;100042.13;5084312;27;45388;-68
2022/05/23 02:48:42;;;;;;;;;9.00;9.00;;;;;18.84;63.17;100041.91;5084721;27;45327;-68
2022/05/23 02:51:07;;;;;;;;;11.00;11.00;;;;;18.92;62.92;100054.59;5084208;27;45466;-68
2022/05/23 02:53:33;;;;;;;;;11.00;10.33;;;;;18.88;63.09;100061.56;5081646;27;45483;-68
2022/05/23 02:55:58;;;;;;;;;10.33;10.33;;;;;18.87;63.01;100059.88;5080984;27;45362;-69
2022/05/23 02:58:24;;;;;;;;;11.00;11.00;;;;;18.86;63.22;100058.19;5071045;28;45326;-68
2022/05/23 03:00:49;;;;;;;;;16.33;16.33;;;;;18.79;63.12;100051.88;5079172;27;45439;-68
2022/05/23 03:03:15;;;;;;;;;39.75;35.50;;;;;18.73;63.67;100053.59;5077052;27;45480;-68
2022/05/23 03:05:47;;;;;;;;;71.50;57.75;;;;;18.73;63.60;100055.50;5080823;27;45249;-68
2022/05/23 03:08:15;;;;;;;;;73.50;60.75;;;;;18.81;63.59;100058.00;5074128;27;45313;-69
2022/05/23 03:10:41;;;;;;;;;59.50;48.50;;;;;18.95;62.87;100056.88;5081586;27;46009;-68
2022/05/23 03:13:07;;;;;;;;;63.50;47.75;;;;;18.98;63.49;100051.78;5080808;27;46187;-68
2022/05/23 03:15:33;;;;;;;;;53.50;45.00;;;;;19.01;62.84;100058.75;5077586;27;45246;-68
2022/05/23 03:17:59;;;;;;;;;49.25;41.00;;;;;19.07;62.57;100068.88;5082189;27;45270;-68
2022/05/23 03:20:26;;;;;;;;;49.00;40.75;;;;;19.18;62.43;100061.84;5074463;27;45537;-68
2022/05/23 03:28:20;;;;;;;;;45.25;38.50;;;;;19.33;61.91;100059.63;5072853;27;45285;-68
2022/05/23 03:30:47;;;;;;;;;47.25;39.75;;;;;19.29;61.55;100039.94;5081638;27;45561;-68
2022/05/23 03:33:13;;;;;;;;;38.50;35.00;;;;;19.30;61.96;100052.66;5094698;27;45522;-68
2022/05/23 03:35:40;;;;;;;;;36.50;32.25;;;;;19.21;62.82;100029.22;5078007;27;45392;-69
2022/05/23 03:38:06;;;;;;;;;47.00;35.25;;;;;19.13;61.88;99999.19;5091492;27;45569;-68
2022/05/23 03:40:34;;;;;;;;;40.00;36.25;;;;;19.21;62.50;100001.69;5080587;27;45224;-68
2022/05/23 03:43:00;;;;;;;;;36.25;33.00;;;;;19.20;62.89;99999.97;5105375;27;48577;-68
2022/05/23 03:45:26;;;;;;;;;32.50;31.50;;;;;19.18;62.16;99991.09;5078873;27;45466;-68
2022/05/23 03:47:53;;;;;;;;;35.75;31.00;;;;;19.18;62.76;99993.00;5087087;27;45404;-69
2022/05/23 03:50:20;;;;;;;;;33.00;30.00;;;;;19.14;63.00;100000.03;5075698;27;45716;-68
2022/05/23 03:52:46;;;;;;;;;33.50;30.00;;;;;19.05;63.29;99994.78;5069762;28;45735;-68
2022/05/23 03:55:11;;;;;;;;;26.50;26.00;;;;;19.03;63.73;100013.44;5074039;27;45321;-68
2022/05/23 03:57:37;;;;;;;;;23.25;20.25;;;;;19.03;63.99;100009.81;5086462;27;45296;-68
2022/05/23 04:00:06;;;;;;;;;20.33;18.33;;;;;19.07;63.29;100011.06;5068988;27;45271;-68
2022/05/23 04:02:32;;;;;;;;;20.00;20.00;;;;;18.95;64.05;100005.44;5075550;27;45456;-68
2022/05/23 04:04:57;;;;;;;;;15.33;12.67;;;;;18.95;63.26;99988.06;5073539;27;45487;-68
2022/05/23 04:07:23;;;;;;;;;17.50;17.50;;;;;19.02;63.41;100003.47;5076098;27;45538;-68
2022/05/23 04:09:48;;;;;;;;;15.33;14.00;;;;;18.98;63.78;99980.22;5070590;27;45773;-68
2022/05/23 04:12:13;;;;;;;;;15.00;15.00;;;;;18.92;63.90;99986.59;5089434;27;47167;-68
2022/05/23 04:14:39;;;;;;;;;19.00;13.67;;;;;18.93;63.55;99980.03;5067594;27;45423;-68
2022/05/23 04:17:06;;;;;;;;;17.00;15.00;;;;;18.79;64.51;99963.81;5089969;27;45296;-69
2022/05/23 04:19:31;;;;;;;;;15.00;15.00;;;;;18.76;64.87;99962.34;5065981;27;45556;-68
2022/05/23 04:21:57;;;;;;;;;19.00;17.33;;;;;18.77;64.45;99961.31;5105402;27;46285;-68
2022/05/23 04:24:23;;;;;;;;;19.67;19.33;;;;;18.86;64.53;99964.59;5064048;27;45273;-68
2022/05/23 04:26:53;;;;;;;;;21.33;17.00;;;;;19.00;64.15;99974.47;5086477;27;45463;-68
2022/05/23 04:29:19;;;;;;;;;8.67;7.00;;;;;18.90;64.25;99952.09;5062706;28;45497;-68
2022/05/23 04:31:44;;;;;;;;;21.25;20.00;;;;;18.97;63.76;99950.16;5090051;27;45428;-68
2022/05/23 04:36:54;;;;;;;;;22.25;18.25;;;;;19.08;65.21;99902.63;5087496;27;45382;-68
2022/05/23 04:39:19;;;;;;;;;22.25;22.25;;;;;19.09;65.85;99903.47;5096247;27;45535;-68
2022/05/23 04:41:45;;;;;;;;;21.00;19.50;;;;;19.05;65.84;99905.84;5085150;27;45495;-68
2022/05/23 04:44:10;;;;;;;;;21.50;20.50;;;;;18.99;66.16;99904.78;5094838;27;45262;-69
2022/05/23 04:46:36;;;;;;;;;22.00;20.00;;;;;18.84;67.37;99933.72;5086863;27;45301;-68
2022/05/23 04:51:45;;;;;;;;;20.00;19.00;;;;;18.64;67.59;99900.81;5085353;27;45332;-68
2022/05/23 04:54:11;;;;;;;;;19.00;17.25;;;;;18.85;66.58;99919.72;5089257;27;45308;-68
2022/05/23 04:56:39;;;;;;;;;18.00;18.00;;;;;18.87;68.15;99925.84;5082428;27;45499;-68
2022/05/23 04:59:05;;;;;;;;;21.00;17.75;;;;;18.98;69.40;99927.06;5074947;27;45421;-68
2022/05/23 05:01:31;;;;;;;;;18.33;17.00;;;;;18.92;68.72;99912.25;5065747;27;47181;-69
2022/05/23 05:03:57;;;;;;;;;17.33;16.00;;;;;19.02;68.42;99926.38;5086790;27;45352;-68
2022/05/23 05:06:24;;;;;;;;;17.67;15.00;;;;;19.05;68.76;99925.09;5063866;28;45449;-69
2022/05/23 05:08:50;;;;;;;;;15.33;14.33;;;;;19.05;67.79;99922.34;5071948;27;45626;-69
2022/05/23 05:11:15;;;;;;;;;16.67;16.00;;;;;19.11;67.41;99918.69;5070635;28;47999;-68
2022/05/23 05:13:43;;;;;;;;;12.67;12.67;;;;;19.02;67.36;99898.00;5089178;27;45357;-68
2022/05/23 05:16:08;;;;;;;;;9.67;9.67;;;;;18.92;67.64;99908.69;5087687;27;45433;-72
2022/05/23 05:18:34;;;;;;;;;11.00;10.67;;;;;18.97;67.13;99893.19;5077127;27;45569;-68
2022/05/23 05:21:11;;;;;;;;;12.00;12.00;;;;;18.89;68.36;99882.44;5080491;27;45766;-70
2022/05/23 05:23:37;;;;;;;;;11.67;11.00;;;;;18.79;69.03;99893.09;5080368;28;45415;-70
2022/05/23 05:26:05;;;;;;;;;13.67;12.00;;;;;18.84;68.40;99882.28;5087486;27;45451;-68
2022/05/23 05:28:31;;;;;;;;;12.67;11.67;;;;;18.95;68.03;99869.69;5076669;28;45181;-69
2022/05/23 05:31:15;;;;;;;;;12.00;10.67;;;;;18.94;67.57;99881.78;5077586;27;46594;-68
2022/05/23 05:33:50;;;;;;;;;16.33;13.67;;;;;19.07;67.74;99878.91;5073860;28;45462;-70
2022/05/23 05:36:24;;;;;;;;;15.00;12.00;;;;;19.19;67.19;99866.09;5068768;28;45722;-68
2022/05/23 05:38:59;;;;;;;;;12.00;12.00;;;;;19.25;66.71;99864.34;5083531;27;45355;-68
2022/05/23 05:41:29;;;;;;;;;14.00;14.00;;;;;19.22;68.09;99857.38;5082962;27;46583;-69
2022/05/23 05:44:07;;;;;;;;;13.67;10.67;;;;;19.26;67.50;99847.59;5071717;27;45262;-69
2022/05/23 05:46:47;;;;;;;;;12.67;10.67;;;;;19.31;65.41;99868.94;5068570;27;45343;-68
2022/05/23 05:49:17;;;;;;;;;13.33;10.33;;;;;19.25;66.84;99901.00;5073369;27;45307;-68
2022/05/23 05:51:44;;;;;;;;;11.00;11.00;;;;;19.23;68.14;99903.13;5081723;27;46325;-68
2022/05/23 05:54:15;;;;;;;;;14.33;13.00;;;;;19.24;67.80;99899.31;5070432;27;45411;-68
2022/05/23 05:56:43;;;;;;;;;9.67;9.33;;;;;19.37;66.93;99890.91;5078227;27;45472;-69
2022/05/23 05:59:09;;;;;;;;;13.00;11.67;;;;;19.34;67.38;99868.50;5069340;27;45326;-68
2022/05/23 06:01:34;;;;;;;;;10.00;9.33;;;;;19.50;66.10;99886.41;5063979;27;46637;-69
2022/05/23 06:04:00;;;;;;;;;12.33;11.00;;;;;19.61;66.71;99875.47;5068884;27;45236;-69
2022/05/23 06:11:53;;;;;;;;;14.00;11.00;;;;;19.96;64.83;99877.59;5089105;27;45429;-69
2022/05/23 06:14:18;;;;;;;;;14.67;13.33;;;;;20.01;65.81;99878.63;5061548;28;45377;-68
2022/05/23 06:16:44;;;;;;;;;12.00;12.00;;;;;19.94;66.03;99879.78;5091390;27;45460;-68
2022/05/23 06:19:09;;;;;;;;;12.33;12.33;;;;;20.03;65.99;99889.41;5061989;28;45533;-68
2022/05/23 06:21:35;;;;;;;;;11.00;10.00;;;;;20.11;65.08;99892.69;5079699;27;48186;-69
2022/05/23 06:24:00;;;;;;;;;11.00;11.00;;;;;20.16;64.86;99890.06;5059691;27;45307;-69
2022/05/23 06:26:26;;;;;;;;;13.00;13.00;;;;;20.20;65.07;99898.75;5085428;27;45344;-69
2022/05/23 06:28:52;;;;;;;;;12.00;11.67;;;;;20.25;65.25;99884.25;5080273;28;45601;-70
2022/05/23 06:31:19;;;;;;;;;12.00;11.67;;;;;20.23;65.99;99875.38;5092303;27;45474;-70
2022/05/23 06:33:45;;;;;;;;;11.00;11.00;;;;;20.31;64.94;99858.50;5085908;27;45298;-70
2022/05/23 06:36:12;;;;;;;;;8.67;8.67;;;;;20.37;64.57;99857.59;5068491;28;45848;-70
2022/05/23 06:38:39;;;;;;;;;10.00;10.00;;;;;20.39;66.09;99855.44;5072156;28;45303;-70
2022/05/23 06:41:06;;;;;;;;;10.00;10.00;;;;;20.33;65.22;99850.81;5064117;28;47311;-70
2022/05/23 06:43:33;;;;;;;;;10.00;10.00;;;;;20.36;64.87;99858.69;5072986;28;45263;-70
2022/05/23 06:45:59;;;;;;;;;9.33;9.33;;;;;20.31;64.85;99848.28;5080912;27;45427;-70
2022/05/23 06:48:25;;;;;;;;;10.67;9.00;;;;;20.23;65.35;99834.84;5074099;27;45493;-70
2022/05/23 06:50:51;;;;;;;;;8.67;8.67;;;;;20.32;65.94;99814.13;5081734;27;45534;-70
2022/05/23 06:53:21;;;;;;;;;14.33;10.33;;;;;20.52;64.96;99827.66;5084145;27;45393;-70
2022/05/23 06:55:48;;;;;;;;;11.00;9.33;;;;;20.70;64.95;99827.59;5078459;27;45443;-70
2022/05/23 06:58:14;;;;;;;;;9.67;9.67;;;;;20.71;65.06;99828.44;5069370;28;45396;-69
2022/05/23 07:00:40;;;;;;;;;10.00;10.00;;;;;20.84;64.29;99820.75;5076088;27;46164;-70
2022/05/23 07:03:06;;;;;;;;;14.33;9.00;;;;;20.98;64.00;99810.34;5074764;27;45922;-69
2022/05/23 07:13:44;;;;;;;;;12.00;9.33;;;;;21.02;63.83;99800.50;5069102;27;45382;-69
2022/05/23 07:16:10;;;;;;;;;10.00;10.00;;;;;20.91;63.29;99785.59;5084503;27;45359;-68
2022/05/23 07:18:37;;;;;;;;;9.67;9.67;;;;;20.97;64.19;99817.78;5071149;27;45533;-69
2022/05/23 07:21:05;;;;;;;;;10.33;9.33;;;;;20.96;64.23;99807.84;5081147;27;45381;-69
2022/05/23 07:23:31;;;;;;;;;11.00;10.00;;;;;20.99;64.21;99807.34;5070604;27;45310;-69
2022/05/23 07:25:56;;;;;;;;;12.00;9.67;;;;;20.91;64.77;99826.19;5081960;27;45321;-69
2022/05/23 07:28:22;;;;;;;;;9.00;8.67;;;;;20.88;65.27;99821.16;5092879;27;45623;-70
2022/05/23 07:30:47;;;;;;;;;10.33;10.33;;;;;20.95;65.32;99819.97;5072935;27;48327;-69
2022/05/23 07:33:12;;;;;;;;;16.33;12.33;;;;;20.88;64.49;99832.19;5095695;27;45342;-70
2022/05/23 07:35:38;;;;;;;;;10.33;10.33;;;;;20.89;64.77;99820.88;5065959;28;45331;-69
2022/05/23 07:38:03;;;;;;;;;11.33;11.33;;;;;20.59;66.09;99818.22;5104858;27;45633;-69
2022/05/23 07:40:29;;;;;;;;;11.67;11.67;;;;;20.60;66.43;99835.63;5075154;27;46521;-69
2022/05/23 07:42:54;;;;;;;;;9.33;9.33;;;;;20.62;66.58;99833.44;5091605;27;45263;-69
2022/05/23 07:45:20;;;;;;;;;11.00;11.00;;;;;20.68;65.94;99842.69;5073907;27;45211;-69
2022/05/23 07:47:45;;;;;;;;;11.33;11.33;;;;;20.73;65.65;99829.03;5071769;28;45425;-69
2022/05/23 07:50:13;;;;;;;;;10.33;10.00;;;;;20.75;66.33;99838.75;5072355;27;46050;-69
2022/05/23 07:52:39;;;;;;;;;10.33;9.33;;;;;20.72;66.26;99828.19;5085865;27;45443;-69
2022/05/23 08:00:37;;;;;;;;;9.67;8.33;;;;;21.44;64.98;99743.22;5076167;27;45511;-69
2022/05/23 08:03:16;;;;;;;;;12.33;11.00;;;;;21.71;63.46;99747.09;5068009;28;45425;-69
2022/05/23 08:05:43;;;;;;;;;13.00;12.33;;;;;21.87;63.12;99742.72;5085288;27;45480;-70
2022/05/23 08:08:08;;;;;;;;;10.67;10.67;;;;;22.14;62.51;99749.34;5080938;27;45461;-70
2022/05/23 08:10:34;;;;;;;;;10.67;9.00;;;;;22.39;61.91;99757.31;5074580;27;45538;-70
2022/05/23 08:13:02;;;;;;;;;11.67;11.33;;;;;22.63;62.19;99760.78;5078603;27;45324;-69
2022/05/23 08:15:28;;;;;;;;;11.33;11.33;;;;;22.74;62.14;99762.63;5064088;27;45322;-70
2022/05/23 08:17:54;;;;;;;;;10.67;10.67;;;;;22.81;61.82;99762.47;5082413;27;45378;-70
2022/05/23 08:20:20;;;;;;;;;10.67;10.67;;;;;22.95;61.83;99763.78;5070054;27;46402;-69
2022/05/23 08:22:51;;;;;;;;;12.00;12.00;;;;;22.64;63.50;99769.91;5081272;27;45448;-70
2022/05/23 08:25:17;;;;;;;;;13.33;13.33;;;;;22.28;66.43;99765.69;5068863;27;45592;-67
2022/05/23 08:27:42;;;;;;;;;14.33;12.33;;;;;22.15;66.15;99764.03;5093933;27;45487;-69
2022/05/23 08:30:08;;;;;;;;;17.33;13.33;;;;;21.98;67.08;99775.06;5075958;27;45343;-68
2022/05/23 08:32:34;;;;;;;;;9.67;8.33;;;;;21.56;69.36;99784.63;5096841;27;45328;-68
2022/05/23 08:34:59;;;;;;;;;9.67;9.67;;;;;21.42;69.59;99797.88;5074729;27;45275;-68
2022/05/23 08:37:24;;;;;;;;;14.33;12.00;;;;;21.21;70.01;99798.50;5091742;27;45428;-69
2022/05/23 08:39:50;;;;;;;;;16.00;12.67;;;;;21.04;69.51;99800.28;5073558;27;45520;-68
2022/05/23 08:42:49;;;;;;;;;11.00;11.00;;;;;20.95;71.71;99794.25;5088639;27;45318;-68
2022/05/23 08:45:25;;;;;;;;;14.67;13.67;;;;;20.72;71.63;99795.06;5073644;27;45550;-68
2022/05/23 08:47:53;;;;;;;;;18.00;12.00;;;;;20.86;71.74;99803.97;5086265;27;45240;-66
2022/05/23 08:50:55;;;;;;;;;10.67;10.67;;;;;20.95;70.15;99795.09;5071233;27;45434;-69
2022/05/23 08:53:27;;;;;;;;;14.00;13.33;;;;;21.07;69.72;99791.50;5062627;27;45508;-68
2022/05/23 08:55:58;;;;;;;;;13.67;12.33;;;;;20.98;70.30;99800.13;5075915;27;45357;-68
2022/05/23 08:58:30;;;;;;;;;11.00;11.00;;;;;20.87;69.57;99803.75;5074920;27;45480;-69
2022/05/23 09:01:05;;;;;;;;;11.67;11.67;;;;;20.64;69.84;99803.69;5081717;27;45475;-69
2022/05/23 09:03:38;;;;;;;;;15.67;14.33;;;;;20.60;70.91;99797.78;5089501;27;45274;-68
2022/05/23 09:06:13;;;;;;;;;15.33;14.00;;;;;20.77;70.06;99808.16;5082457;27;45324;-68
2022/05/23 09:08:52;;;;;;;;;14.67;13.00;;;;;20.68;70.07;99810.41;5071655;27;45539;-68
2022/05/23 09:11:37;;;;;;;;;11.00;11.00;;;;;20.80;69.84;99816.81;5085956;27;46683;-68
2022/05/23 09:14:05;;;;;;;;;19.00;13.00;;;;;20.79;69.35;99817.03;5062090;28;45394;-69
2022/05/23 09:16:37;;;;;;;;;14.00;14.00;;;;;20.85;69.25;99805.88;5088193;27;45237;-68
2022/05/23 09:19:34;;;;;;;;;16.00;9.33;;;;;21.04;68.93;99803.03;5061329;28;45585;-68
2022/05/23 09:22:18;;;;;;;;;12.00;12.00;;;;;21.19;67.96;99806.16;5051684;28;47000;-69
2022/05/23 09:25:01;;;;;;;;;15.67;13.33;;;;;20.89;67.18;99809.84;5065889;27;45436;-68
2022/05/23 09:28:13;;;;;;;;;16.00;16.00;;;;;20.57;67.93;99800.19;5092841;27;45233;-69
2022/05/23 09:30:41;;;;;;;;;16.33;16.00;;;;;20.87;68.97;99789.09;5044599;28;45370;-69
2022/05/23 09:33:16;;;;;;;;;14.00;12.33;;;;;20.80;67.86;99797.50;5082650;27;46219;-69
2022/05/23 09:35:41;;;;;;;;;14.67;14.67;;;;;20.55;66.17;99802.34;5075999;27;45479;-69
2022/05/23 09:38:18;;;;;;;;;15.33;14.33;;;;;20.79;66.79;99803.25;5078899;27;45349;-69
2022/05/23 09:40:44;;;;;;;;;13.00;13.00;;;;;21.15;67.37;99793.91;5065390;28;45495;-69
2022/05/23 09:49:23;;;;;;;;;14.00;14.00;;;;;21.14;64.10;99797.75;5068461;28;45441;-69
2022/05/23 09:52:00;;;;;;;;;15.67;15.67;;;;;21.32;64.85;99790.22;5082196;27;45405;-69
2022/05/23 09:54:29;;;;;;;;;19.33;19.33;;;;;21.54;63.51;99782.13;5067096;27;45506;-69
2022/05/23 09:56:59;;;;;;;;;18.00;17.33;;;;;21.47;62.23;99767.59;5082084;27;45313;-69
2022/05/23 09:59:36;;;;;;;;;18.33;18.00;;;;;21.31;61.92;99771.09;5065025;27;45811;-69
2022/05/23 10:02:30;;;;;;;;;23.00;21.67;;;;;21.68;62.53;99771.66;5091669;27;45654;-69
2022/05/23 10:04:56;;;;;;;;;17.75;17.75;;;;;21.52;61.50;99778.75;5079010;27;46227;-69
2022/05/23 10:07:37;;;;;;;;;22.00;20.25;;;;;21.32;61.73;99781.94;5083435;27;45540;-69
2022/05/23 10:10:06;;;;;;;;;22.00;20.33;;;;;21.35;63.21;99795.25;5069499;27;45318;-69
2022/05/23 10:12:34;;;;;;;;;20.33;19.00;;;;;21.33;62.87;99780.00;5086766;27;45321;-69
2022/05/23 10:15:28;;;;;;;;;23.50;21.75;;;;;21.50;61.81;99785.59;5078716;27;45616;-67
2022/05/23 10:18:10;;;;;;;;;16.00;14.75;;;;;21.07;63.24;99777.69;5111035;27;45381;-68
2022/05/23 10:20:43;;;;;;;;;18.50;18.50;;;;;21.39;63.17;99779.03;5077282;27;45255;-68
2022/05/23 10:23:21;;;;;;;;;20.00;19.33;;;;;21.64;61.85;99781.50;5080241;27;45303;-69
2022/05/23 10:26:02;;;;;;;;;18.67;17.33;;;;;22.00;61.92;99792.25;5082427;27;45214;-69
2022/05/23 10:28:37;;;;;;;;;19.75;19.75;;;;;21.79;60.39;99778.22;5095287;27;45411;-69
2022/05/23 10:31:09;;;;;;;;;20.00;19.00;;;;;21.44;60.36;99792.09;5081960;27;45491;-69
2022/05/23 10:33:38;;;;;;;;;23.00;23.00;;;;;21.45;62.23;99783.59;5083630;28;45388;-69
2022/05/23 10:36:10;;;;;;;;;25.25;23.50;;;;;21.42;61.82;99783.22;5092313;27;45491;-69
2022/05/23 10:44:47;;;;;;;;;18.67;18.67;;;;;21.47;62.56;99786.09;5072247;28;45218;-68
2022/05/23 10:47:38;;;;;;;;;23.25;23.25;;;;;21.33;62.90;99785.53;5074787;28;46173;-68
2022/05/23 10:50:14;;;;;;;;;22.50;22.25;;;;;20.95;62.90;99780.47;5081170;27;45465;-69
2022/05/23 10:52:53;;;;;;;;;23.25;21.00;;;;;20.79;64.42;99793.03;5105664;27;45290;-68
2022/05/23 10:55:28;;;;;;;;;25.00;25.00;;;;;20.76;65.17;99785.22;5075303;27;45419;-68
2022/05/23 10:58:01;;;;;;;;;27.25;24.75;;;;;20.68;66.23;99793.84;5083202;27;45580;-69
2022/05/23 11:00:44;;;;;;;;;26.50;25.50;;;;;20.74;66.31;99795.69;5074729;27;46078;-68
2022/05/23 11:03:18;;;;;;;;;30.50;25.50;;;;;20.78;66.59;99785.84;5078820;27;45479;-68
2022/05/23 11:05:49;;;;;;;;;13.00;12.00;;;;;20.53;66.94;99777.72;5083316;27;45172;-67
2022/05/23 11:08:51;;;;;;;;;24.75;24.75;;;;;20.60;69.77;99777.66;5081547;27;45405;-67
2022/05/23 11:11:19;;;;;;;;;26.00;26.00;;;;;20.51;68.50;99781.84;5097088;27;45418;-67
2022/05/23 11:14:08;;;;;;;;;3.25;2.00;;;;;20.30;66.88;99780.44;5096410;27;45466;-67
2022/05/23 11:16:46;;;;;;;;;27.75;25.75;;;;;19.97;67.98;99799.34;5092918;27;45611;-66
2022/05/23 11:19:23;;;;;;;;;25.50;25.00;;;;;19.85;70.64;99803.97;5064429;28;45540;-67
2022/05/23 11:22:18;;;;;;;;;28.50;24.25;;;;;19.77;70.27;99805.13;5090253;27;45523;-67
2022/05/23 11:24:51;;;;;;;;;26.25;24.75;;;;;19.84;70.56;99803.13;5067346;27;45340;-67
2022/05/23 11:35:55;;;;;;;;;28.75;27.50;;;;;19.18;81.76;99792.81;5082186;27;45424;-69
2022/05/23 11:38:22;;;;;;;;;29.50;26.75;;;;;19.04;80.56;99802.28;5092526;27;45316;-69
2022/05/23 11:41:00;;;;;;;;;30.75;27.25;;;;;18.84;82.51;99796.97;5080697;27;46125;-69
2022/05/23 11:43:27;;;;;;;;;32.50;31.00;;;;;19.05;82.63;99812.22;5100735;27;45519;-69
2022/05/23 11:46:05;;;;;;;;;31.25;27.50;;;;;19.30;81.16;99806.66;5068275;28;45475;-69
2022/05/23 11:48:53;;;;;;;;;33.00;30.00;;;;;19.46;80.10;99806.06;5082663;27;45406;-68
2022/05/23 11:51:25;;;;;;;;;36.00;31.00;;;;;19.70;78.12;99809.88;5082973;27;45240;-69
2022/05/23 11:53:56;;;;;;;;;35.25;30.00;;;;;19.82;77.89;99816.28;5079220;27;45310;-68
2022/05/23 11:56:40;;;;;;;;;32.75;30.50;;;;;20.04;76.57;99814.72;5079035;27;45418;-69
2022/05/23 11:59:09;;;;;;;;;34.25;30.00;;;;;19.98;76.51;99807.38;5078205;27;45399;-69
2022/05/23 12:01:35;;;;;;;;;39.75;33.50;;;;;19.91;78.65;99819.56;5076602;27;46172;-68
2022/05/23 12:04:00;;;;;;;;;28.50;27.50;;;;;19.67;77.04;99816.66;5087219;27;45331;-69
2022/05/23 12:06:28;;;;;;;;;35.00;33.00;;;;;19.69;77.10;99819.19;5089731;27;45538;-68
2022/05/23 12:09:16;;;;;;;;;27.50;27.50;;;;;19.69;76.08;99816.44;5069668;27;45550;-67
2022/05/23 12:11:50;;;;;;;;;33.00;31.00;;;;;19.48;77.95;99825.19;5084143;27;46272;-68
2022/05/23 12:14:24;;;;;;;;;40.50;36.00;;;;;19.37;78.18;99824.81;5063833;27;45467;-68
2022/05/23 12:16:49;;;;;;;;;32.50;29.00;;;;;19.29;78.67;99825.09;5091174;27;45298;-68
2022/05/23 12:19:28;;;;;;;;;35.00;31.00;;;;;19.08;79.88;99831.03;5064447;28;45342;-68
2022/05/23 12:22:16;;;;;;;;;27.50;24.00;;;;;19.00;77.97;99832.16;5087308;27;45753;-66
2022/05/23 12:25:08;;;;;;;;;33.75;30.25;;;;;18.99;78.57;99835.16;5066662;27;45532;-67
2022/05/23 12:28:03;;;;;;;;;26.50;26.50;;;;;18.91;77.51;99840.94;5094869;27;45400;-65